sensor_id;sensor_type;location;lat;lon;timestamp;temperature;humidity
62912;DHT22;49111;51.028;4.218;2022-09-20T00:47:04;12.30;99.90
62912;DHT22;49111;51.028;4.218;2022-09-20T00:54:09;12.30;99.90
62912;DHT22;49111;51.028;4.218;2022-09-20T01:01:09;12.20;99.90
62912;DHT22;49111;51.028;4.218;2022-09-20T01:13:15;12.20;99.90
62912;DHT22;49111;51.028;4.218;2022-09-20T02:55:46;12.80;99.90
62912;DHT22;49111;51.028;4.218;2022-09-20T04:30:25;11.50;99.90
62912;DHT22;49111;51.028;4.218;2022-09-20T04:37:32;11.50;99.90
62912;DHT22;49111;51.028;4.218;2022-09-20T05:22:20;11.00;99.90
62912;DHT22;49111;51.028;4.218;2022-09-20T05:38:50;11.00;99.90
62912;DHT22;49111;51.028;4.218;2022-09-20T06:10:26;11.30;99.90
62912;DHT22;49111;51.028;4.218;2022-09-20T06:17:39;11.30;99.90
62912;DHT22;49111;51.028;4.218;2022-09-20T06:41:02;11.50;99.90
62912;DHT22;49111;51.028;4.218;2022-09-20T07:09:49;11.80;99.90
62912;DHT22;49111;51.028;4.218;2022-09-20T07:40:16;12.80;99.90
62912;DHT22;49111;51.028;4.218;2022-09-20T07:51:51;13.30;99.90
62912;DHT22;49111;51.028;4.218;2022-09-20T08:07:59;14.00;99.90
62912;DHT22;49111;51.028;4.218;2022-09-20T08:19:34;14.50;99.90
62912;DHT22;49111;51.028;4.218;2022-09-20T08:26:34;14.80;99.90
62912;DHT22;49111;51.028;4.218;2022-09-20T09:10:11;15.90;99.90
62912;DHT22;49111;51.028;4.218;2022-09-20T11:17:44;18.10;96.10
62912;DHT22;49111;51.028;4.218;2022-09-20T11:25:18;18.00;95.90
62912;DHT22;49111;51.028;4.218;2022-09-20T11:32:35;18.30;95.80
62912;DHT22;49111;51.028;4.218;2022-09-20T11:39:54;18.60;95.50
62912;DHT22;49111;51.028;4.218;2022-09-20T11:47:40;18.60;95.40
62912;DHT22;49111;51.028;4.218;2022-09-20T11:54:33;19.10;94.80
62912;DHT22;49111;51.028;4.218;2022-09-20T12:11:32;18.80;93.80
62912;DHT22;49111;51.028;4.218;2022-09-20T12:44:17;17.90;96.60
62912;DHT22;49111;51.028;4.218;2022-09-20T12:47:04;17.60;97.30
62912;DHT22;49111;51.028;4.218;2022-09-20T12:56:16;17.40;97.60
62912;DHT22;49111;51.028;4.218;2022-09-20T12:58:52;17.20;98.00
62912;DHT22;49111;51.028;4.218;2022-09-20T13:03:49;17.30;98.50
62912;DHT22;49111;51.028;4.218;2022-09-20T13:08:44;17.30;98.40
62912;DHT22;49111;51.028;4.218;2022-09-20T13:11:22;17.20;99.10
62912;DHT22;49111;51.028;4.218;2022-09-20T13:16:53;17.20;99.20
62912;DHT22;49111;51.028;4.218;2022-09-20T13:19:23;17.40;99.20
62912;DHT22;49111;51.028;4.218;2022-09-20T13:22:00;17.40;99.10
62912;DHT22;49111;51.028;4.218;2022-09-20T13:24:36;17.60;99.50
62912;DHT22;49111;51.028;4.218;2022-09-20T13:27:08;17.70;98.70
62912;DHT22;49111;51.028;4.218;2022-09-20T13:29:40;17.70;99.10
62912;DHT22;49111;51.028;4.218;2022-09-20T13:32:38;17.60;98.50
62912;DHT22;49111;51.028;4.218;2022-09-20T13:37:32;17.50;98.60
62912;DHT22;49111;51.028;4.218;2022-09-20T13:40:00;17.40;99.50
62912;DHT22;49111;51.028;4.218;2022-09-20T13:42:28;17.50;99.60
62912;DHT22;49111;51.028;4.218;2022-09-20T13:44:55;17.60;99.80
62912;DHT22;49111;51.028;4.218;2022-09-20T13:47:28;17.70;99.10
62912;DHT22;49111;51.028;4.218;2022-09-20T13:52:54;17.70;99.20
62912;DHT22;49111;51.028;4.218;2022-09-20T13:57:54;17.60;99.60
62912;DHT22;49111;51.028;4.218;2022-09-20T14:00:21;17.60;99.60
62912;DHT22;49111;51.028;4.218;2022-09-20T14:02:48;17.70;99.10
62912;DHT22;49111;51.028;4.218;2022-09-20T14:05:17;17.80;98.50
62912;DHT22;49111;51.028;4.218;2022-09-20T14:07:45;17.90;98.50
62912;DHT22;49111;51.028;4.218;2022-09-20T14:10:31;18.10;98.30
62912;DHT22;49111;51.028;4.218;2022-09-20T14:12:59;18.10;97.90
62912;DHT22;49111;51.028;4.218;2022-09-20T14:15:34;18.10;97.20
62912;DHT22;49111;51.028;4.218;2022-09-20T14:18:01;18.30;97.40
62912;DHT22;49111;51.028;4.218;2022-09-20T14:20:29;18.40;97.50
62912;DHT22;49111;51.028;4.218;2022-09-20T14:22:55;18.30;96.90
62912;DHT22;49111;51.028;4.218;2022-09-20T14:25:24;18.40;97.50
62912;DHT22;49111;51.028;4.218;2022-09-20T14:28:17;18.40;97.30
62912;DHT22;49111;51.028;4.218;2022-09-20T14:30:44;18.20;97.60
62912;DHT22;49111;51.028;4.218;2022-09-20T14:33:17;18.00;96.50
62912;DHT22;49111;51.028;4.218;2022-09-20T14:35:50;17.70;96.60
62912;DHT22;49111;51.028;4.218;2022-09-20T14:38:21;17.80;96.70
62912;DHT22;49111;51.028;4.218;2022-09-20T14:40:48;17.70;97.60
62912;DHT22;49111;51.028;4.218;2022-09-20T14:43:40;17.70;97.70
62912;DHT22;49111;51.028;4.218;2022-09-20T14:46:16;17.60;98.40
62912;DHT22;49111;51.028;4.218;2022-09-20T14:48:42;17.50;97.70
62912;DHT22;49111;51.028;4.218;2022-09-20T14:51:21;17.50;98.00
62912;DHT22;49111;51.028;4.218;2022-09-20T14:56:36;17.50;98.50
62912;DHT22;49111;51.028;4.218;2022-09-20T14:59:04;17.50;98.80
62912;DHT22;49111;51.028;4.218;2022-09-20T15:01:32;17.60;98.70
62912;DHT22;49111;51.028;4.218;2022-09-20T15:04:05;17.50;98.50
62912;DHT22;49111;51.028;4.218;2022-09-20T15:06:34;17.50;98.50
62912;DHT22;49111;51.028;4.218;2022-09-20T15:09:00;17.50;98.40
62912;DHT22;49111;51.028;4.218;2022-09-20T15:11:26;17.40;98.70
62912;DHT22;49111;51.028;4.218;2022-09-20T15:13:54;17.40;98.60
62912;DHT22;49111;51.028;4.218;2022-09-20T15:16:20;17.40;99.30
62912;DHT22;49111;51.028;4.218;2022-09-20T15:18:46;17.40;99.20
62912;DHT22;49111;51.028;4.218;2022-09-20T15:21:12;17.50;99.00
62912;DHT22;49111;51.028;4.218;2022-09-20T15:23:38;17.60;99.10
62912;DHT22;49111;51.028;4.218;2022-09-20T15:26:05;17.60;98.80
62912;DHT22;49111;51.028;4.218;2022-09-20T15:28:34;17.60;99.40
62912;DHT22;49111;51.028;4.218;2022-09-20T15:31:00;17.60;98.60
62912;DHT22;49111;51.028;4.218;2022-09-20T15:33:28;17.80;98.70
62912;DHT22;49111;51.028;4.218;2022-09-20T15:35:55;17.90;99.10
62912;DHT22;49111;51.028;4.218;2022-09-20T15:38:21;17.90;98.30
62912;DHT22;49111;51.028;4.218;2022-09-20T15:40:48;17.90;98.80
62912;DHT22;49111;51.028;4.218;2022-09-20T15:43:16;17.90;98.20
62912;DHT22;49111;51.028;4.218;2022-09-20T15:45:48;17.80;98.10
62912;DHT22;49111;51.028;4.218;2022-09-20T15:48:15;17.70;98.00
62912;DHT22;49111;51.028;4.218;2022-09-20T15:51:01;17.80;97.60
62912;DHT22;49111;51.028;4.218;2022-09-20T15:53:32;17.80;97.70
62912;DHT22;49111;51.028;4.218;2022-09-20T15:55:59;17.90;97.90
62912;DHT22;49111;51.028;4.218;2022-09-20T15:58:30;18.00;98.20
62912;DHT22;49111;51.028;4.218;2022-09-20T16:01:07;18.10;97.70
62912;DHT22;49111;51.028;4.218;2022-09-20T16:03:34;18.10;97.40
62912;DHT22;49111;51.028;4.218;2022-09-20T16:06:03;18.10;97.40
62912;DHT22;49111;51.028;4.218;2022-09-20T16:08:33;18.10;97.80
62912;DHT22;49111;51.028;4.218;2022-09-20T16:10:59;18.10;97.80
62912;DHT22;49111;51.028;4.218;2022-09-20T16:13:25;18.10;96.90
62912;DHT22;49111;51.028;4.218;2022-09-20T16:15:56;17.80;96.60
62912;DHT22;49111;51.028;4.218;2022-09-20T16:18:22;17.60;97.50
62912;DHT22;49111;51.028;4.218;2022-09-20T16:21:08;17.50;98.20
62912;DHT22;49111;51.028;4.218;2022-09-20T16:23:37;17.50;98.60
62912;DHT22;49111;51.028;4.218;2022-09-20T16:26:04;17.50;99.10
62912;DHT22;49111;51.028;4.218;2022-09-20T16:28:31;17.40;98.40
62912;DHT22;49111;51.028;4.218;2022-09-20T16:30:58;17.30;98.40
62912;DHT22;49111;51.028;4.218;2022-09-20T16:33:24;17.30;98.50
62912;DHT22;49111;51.028;4.218;2022-09-20T16:35:50;17.30;98.80
62912;DHT22;49111;51.028;4.218;2022-09-20T16:38:16;17.20;99.00
62912;DHT22;49111;51.028;4.218;2022-09-20T16:40:42;17.20;99.50
62912;DHT22;49111;51.028;4.218;2022-09-20T16:43:08;17.20;99.80
62912;DHT22;49111;51.028;4.218;2022-09-20T16:45:34;17.20;99.90
62912;DHT22;49111;51.028;4.218;2022-09-20T16:48:01;17.20;99.40
62912;DHT22;49111;51.028;4.218;2022-09-20T16:50:28;17.10;99.70
62912;DHT22;49111;51.028;4.218;2022-09-20T16:52:54;17.10;99.90
62912;DHT22;49111;51.028;4.218;2022-09-20T16:55:20;17.00;99.90
62912;DHT22;49111;51.028;4.218;2022-09-20T16:57:49;17.00;99.90
62912;DHT22;49111;51.028;4.218;2022-09-20T17:00:16;16.90;99.90
62912;DHT22;49111;51.028;4.218;2022-09-20T17:02:48;16.90;99.90
62912;DHT22;49111;51.028;4.218;2022-09-20T17:05:15;16.80;99.90
62912;DHT22;49111;51.028;4.218;2022-09-20T17:07:41;16.70;99.90
62912;DHT22;49111;51.028;4.218;2022-09-20T17:10:09;16.70;99.90
62912;DHT22;49111;51.028;4.218;2022-09-20T17:12:35;16.60;99.90
62912;DHT22;49111;51.028;4.218;2022-09-20T17:15:10;16.50;99.90
62912;DHT22;49111;51.028;4.218;2022-09-20T17:17:38;16.40;99.90
62912;DHT22;49111;51.028;4.218;2022-09-20T17:20:05;16.30;99.90
62912;DHT22;49111;51.028;4.218;2022-09-20T17:22:32;16.30;99.90
62912;DHT22;49111;51.028;4.218;2022-09-20T17:24:58;16.20;99.90
62912;DHT22;49111;51.028;4.218;2022-09-20T17:27:24;16.10;99.90
62912;DHT22;49111;51.028;4.218;2022-09-20T17:29:50;16.10;99.90
62912;DHT22;49111;51.028;4.218;2022-09-20T17:32:15;16.00;99.90
62912;DHT22;49111;51.028;4.218;2022-09-20T17:34:42;16.00;99.90
62912;DHT22;49111;51.028;4.218;2022-09-20T17:37:07;15.90;99.90
62912;DHT22;49111;51.028;4.218;2022-09-20T17:39:34;15.80;99.90
62912;DHT22;49111;51.028;4.218;2022-09-20T17:42:00;15.70;99.90
62912;DHT22;49111;51.028;4.218;2022-09-20T17:44:26;15.70;99.90
62912;DHT22;49111;51.028;4.218;2022-09-20T17:46:52;15.60;99.90
62912;DHT22;49111;51.028;4.218;2022-09-20T17:49:20;15.50;99.90
62912;DHT22;49111;51.028;4.218;2022-09-20T17:51:51;15.40;99.90
62912;DHT22;49111;51.028;4.218;2022-09-20T17:54:18;15.40;99.90
62912;DHT22;49111;51.028;4.218;2022-09-20T17:56:46;15.30;99.90
62912;DHT22;49111;51.028;4.218;2022-09-20T17:59:14;15.20;99.90
62912;DHT22;49111;51.028;4.218;2022-09-20T18:01:41;15.10;99.90
62912;DHT22;49111;51.028;4.218;2022-09-20T18:04:08;15.00;99.90
62912;DHT22;49111;51.028;4.218;2022-09-20T18:09:05;15.00;99.90
62912;DHT22;49111;51.028;4.218;2022-09-20T18:11:42;14.90;99.90
62912;DHT22;49111;51.028;4.218;2022-09-20T18:14:14;14.90;99.90
62912;DHT22;49111;51.028;4.218;2022-09-20T18:16:41;14.80;99.90
62912;DHT22;49111;51.028;4.218;2022-09-20T18:19:09;14.70;99.90
62912;DHT22;49111;51.028;4.218;2022-09-20T18:21:37;14.70;99.90
62912;DHT22;49111;51.028;4.218;2022-09-20T18:24:04;14.60;99.90
62912;DHT22;49111;51.028;4.218;2022-09-20T18:26:31;14.60;99.90
62912;DHT22;49111;51.028;4.218;2022-09-20T18:29:06;14.60;99.90
62912;DHT22;49111;51.028;4.218;2022-09-20T18:34:18;14.50;99.90
62912;DHT22;49111;51.028;4.218;2022-09-20T18:36:55;14.40;99.90
62912;DHT22;49111;51.028;4.218;2022-09-20T18:39:22;14.40;99.90
62912;DHT22;49111;51.028;4.218;2022-09-20T18:41:48;14.40;99.90
62912;DHT22;49111;51.028;4.218;2022-09-20T18:44:15;14.30;99.90
62912;DHT22;49111;51.028;4.218;2022-09-20T18:46:44;14.30;99.90
62912;DHT22;49111;51.028;4.218;2022-09-20T18:49:11;14.30;99.90
62912;DHT22;49111;51.028;4.218;2022-09-20T18:51:42;14.20;99.90
62912;DHT22;49111;51.028;4.218;2022-09-20T18:54:09;14.20;99.90
62912;DHT22;49111;51.028;4.218;2022-09-20T18:56:37;14.20;99.90
62912;DHT22;49111;51.028;4.218;2022-09-20T18:59:04;14.10;99.90
62912;DHT22;49111;51.028;4.218;2022-09-20T19:04:38;14.00;99.90
62912;DHT22;49111;51.028;4.218;2022-09-20T19:12:47;13.90;99.90
62912;DHT22;49111;51.028;4.218;2022-09-20T19:20:41;13.90;99.90
62912;DHT22;49111;51.028;4.218;2022-09-20T19:28:37;13.70;99.90
62912;DHT22;49111;51.028;4.218;2022-09-20T19:31:04;13.70;99.90
62912;DHT22;49111;51.028;4.218;2022-09-20T19:33:30;13.70;99.90
62912;DHT22;49111;51.028;4.218;2022-09-20T19:35:56;13.70;99.90
62912;DHT22;49111;51.028;4.218;2022-09-20T19:47:28;13.60;99.90
62912;DHT22;49111;51.028;4.218;2022-09-20T19:52:29;13.50;99.90
62912;DHT22;49111;51.028;4.218;2022-09-20T19:54:55;13.40;99.90
62912;DHT22;49111;51.028;4.218;2022-09-20T19:57:25;13.40;99.90
62912;DHT22;49111;51.028;4.218;2022-09-20T19:59:54;13.40;99.90
62912;DHT22;49111;51.028;4.218;2022-09-20T20:02:21;13.40;99.90
62912;DHT22;49111;51.028;4.218;2022-09-20T20:04:47;13.40;99.90
62912;DHT22;49111;51.028;4.218;2022-09-20T20:20:43;13.20;99.90
62912;DHT22;49111;51.028;4.218;2022-09-20T20:28:31;13.10;99.90
62912;DHT22;49111;51.028;4.218;2022-09-20T20:30:59;13.10;99.90
62912;DHT22;49111;51.028;4.218;2022-09-20T20:33:27;13.00;99.90
62912;DHT22;49111;51.028;4.218;2022-09-20T20:35:58;13.00;99.90
62912;DHT22;49111;51.028;4.218;2022-09-20T20:38:25;13.00;99.90
62912;DHT22;49111;51.028;4.218;2022-09-20T20:40:59;12.90;99.90
62912;DHT22;49111;51.028;4.218;2022-09-20T20:43:33;12.90;99.90
62912;DHT22;49111;51.028;4.218;2022-09-20T20:46:01;12.80;99.90
62912;DHT22;49111;51.028;4.218;2022-09-20T20:48:27;12.80;99.90
62912;DHT22;49111;51.028;4.218;2022-09-20T20:51:08;12.80;99.90
62912;DHT22;49111;51.028;4.218;2022-09-20T20:53:42;12.80;99.90
62912;DHT22;49111;51.028;4.218;2022-09-20T20:56:15;12.70;99.90
62912;DHT22;49111;51.028;4.218;2022-09-20T20:58:43;12.70;99.90
62912;DHT22;49111;51.028;4.218;2022-09-20T21:01:22;12.70;99.90
62912;DHT22;49111;51.028;4.218;2022-09-20T21:03:50;12.60;99.90
62912;DHT22;49111;51.028;4.218;2022-09-20T21:06:17;12.60;99.90
62912;DHT22;49111;51.028;4.218;2022-09-20T21:08:44;12.50;99.90
62912;DHT22;49111;51.028;4.218;2022-09-20T21:11:13;12.50;99.90
62912;DHT22;49111;51.028;4.218;2022-09-20T21:13:39;12.50;99.90
62912;DHT22;49111;51.028;4.218;2022-09-20T21:16:11;12.50;99.90
62912;DHT22;49111;51.028;4.218;2022-09-20T21:18:43;12.50;99.90
62912;DHT22;49111;51.028;4.218;2022-09-20T21:21:29;12.50;99.90
62912;DHT22;49111;51.028;4.218;2022-09-20T21:23:58;12.50;99.90
62912;DHT22;49111;51.028;4.218;2022-09-20T21:26:26;12.50;99.90
62912;DHT22;49111;51.028;4.218;2022-09-20T21:28:56;12.50;99.90
62912;DHT22;49111;51.028;4.218;2022-09-20T21:31:25;12.40;99.90
62912;DHT22;49111;51.028;4.218;2022-09-20T21:33:52;12.40;99.90
62912;DHT22;49111;51.028;4.218;2022-09-20T21:36:20;12.40;99.90
62912;DHT22;49111;51.028;4.218;2022-09-20T21:38:46;12.40;99.90
62912;DHT22;49111;51.028;4.218;2022-09-20T21:41:22;12.40;99.90
62912;DHT22;49111;51.028;4.218;2022-09-20T21:43:50;12.30;99.90
62912;DHT22;49111;51.028;4.218;2022-09-20T21:46:19;12.30;99.90
62912;DHT22;49111;51.028;4.218;2022-09-20T21:48:46;12.30;99.90
62912;DHT22;49111;51.028;4.218;2022-09-20T21:51:14;12.20;99.90
62912;DHT22;49111;51.028;4.218;2022-09-20T21:53:40;12.20;99.90
62912;DHT22;49111;51.028;4.218;2022-09-20T21:56:10;12.20;99.90
62912;DHT22;49111;51.028;4.218;2022-09-20T21:58:37;12.10;99.90
62912;DHT22;49111;51.028;4.218;2022-09-20T22:01:10;12.00;99.90
62912;DHT22;49111;51.028;4.218;2022-09-20T22:06:08;12.00;99.90
62912;DHT22;49111;51.028;4.218;2022-09-20T22:08:36;12.00;99.90
62912;DHT22;49111;51.028;4.218;2022-09-20T22:11:02;12.00;99.90
62912;DHT22;49111;51.028;4.218;2022-09-20T22:13:29;11.90;99.90
62912;DHT22;49111;51.028;4.218;2022-09-20T22:16:05;11.90;99.90
62912;DHT22;49111;51.028;4.218;2022-09-20T22:18:35;11.90;99.90
62912;DHT22;49111;51.028;4.218;2022-09-20T22:21:20;11.80;99.90
62912;DHT22;49111;51.028;4.218;2022-09-20T22:23:52;11.80;99.90
62912;DHT22;49111;51.028;4.218;2022-09-20T22:26:20;11.70;99.90
62912;DHT22;49111;51.028;4.218;2022-09-20T22:28:46;11.70;99.90
62912;DHT22;49111;51.028;4.218;2022-09-20T22:31:21;11.70;99.90
62912;DHT22;49111;51.028;4.218;2022-09-20T22:33:50;11.70;99.90
62912;DHT22;49111;51.028;4.218;2022-09-20T22:36:23;11.60;99.90
62912;DHT22;49111;51.028;4.218;2022-09-20T22:38:49;11.60;99.90
62912;DHT22;49111;51.028;4.218;2022-09-20T22:41:19;11.60;99.90
62912;DHT22;49111;51.028;4.218;2022-09-20T22:43:45;11.60;99.90
62912;DHT22;49111;51.028;4.218;2022-09-20T22:46:20;11.60;99.90
62912;DHT22;49111;51.028;4.218;2022-09-20T22:48:47;11.60;99.90
62912;DHT22;49111;51.028;4.218;2022-09-20T22:51:16;11.60;99.90
62912;DHT22;49111;51.028;4.218;2022-09-20T22:53:43;11.60;99.90
62912;DHT22;49111;51.028;4.218;2022-09-20T22:56:21;11.60;99.90
62912;DHT22;49111;51.028;4.218;2022-09-20T22:58:49;11.50;99.90
62912;DHT22;49111;51.028;4.218;2022-09-20T23:01:21;11.50;99.90
62912;DHT22;49111;51.028;4.218;2022-09-20T23:03:55;11.50;99.90
62912;DHT22;49111;51.028;4.218;2022-09-20T23:06:52;11.50;99.90
62912;DHT22;49111;51.028;4.218;2022-09-20T23:09:22;11.40;99.90
62912;DHT22;49111;51.028;4.218;2022-09-20T23:11:49;11.40;99.90
62912;DHT22;49111;51.028;4.218;2022-09-20T23:14:17;11.40;99.90
62912;DHT22;49111;51.028;4.218;2022-09-20T23:16:44;11.40;99.90
62912;DHT22;49111;51.028;4.218;2022-09-20T23:19:11;11.40;99.90
62912;DHT22;49111;51.028;4.218;2022-09-20T23:21:38;11.30;99.90
62912;DHT22;49111;51.028;4.218;2022-09-20T23:24:07;11.40;99.90
62912;DHT22;49111;51.028;4.218;2022-09-20T23:26:35;11.40;99.90
62912;DHT22;49111;51.028;4.218;2022-09-20T23:29:06;11.30;99.90
62912;DHT22;49111;51.028;4.218;2022-09-20T23:31:33;11.30;99.90
62912;DHT22;49111;51.028;4.218;2022-09-20T23:34:03;11.30;99.90
62912;DHT22;49111;51.028;4.218;2022-09-20T23:36:30;11.20;99.90
62912;DHT22;49111;51.028;4.218;2022-09-20T23:38:57;11.10;99.90
62912;DHT22;49111;51.028;4.218;2022-09-20T23:41:25;11.10;99.90
62912;DHT22;49111;51.028;4.218;2022-09-20T23:43:51;11.20;99.90
62912;DHT22;49111;51.028;4.218;2022-09-20T23:46:18;11.10;99.90
62912;DHT22;49111;51.028;4.218;2022-09-20T23:48:45;11.10;99.90
62912;DHT22;49111;51.028;4.218;2022-09-20T23:51:16;11.00;99.90
62912;DHT22;49111;51.028;4.218;2022-09-20T23:53:42;11.10;99.90
62912;DHT22;49111;51.028;4.218;2022-09-20T23:56:09;11.00;99.90
62912;DHT22;49111;51.028;4.218;2022-09-20T23:58:37;11.00;99.90
